Thunder radar more information blitzortung!


Radar de pluja more information rain snow radar


Visita la nostra xarxa de llocs de meteo:

Template documentation
and downloads

And another site



No particular awareness of the weather is required.    There are no Weather-warnings

Pagina Historial Weather Underground text

Diari Resum Setembre 15, 2017 Unitats:  Mètric    Imperial   Tant
« Previous Dia
SegĂźent Dia »
Diari Setmana Mensual Anual Personalitzada
  Maxima: Minima: Media:
Temperatura: 18.4 °C 9.6 °C 12.9 °C
Punt de rosada: 12.2 °C 7.9 °C 10.8 °C
Humitat: 91 % 64 % 88 %
Wind Speed: 7.4 km/h 0.0 km/h 2.2 km/h
RĂ fegues de vent: 7.4 km/h - -
Vent:- - SSW
Pression baro: 1015.8 hPa 1011.7 hPa -
Precipitacions: 14.7 mm    
Historical Graphs
 
 
Dades de taula per Setembre 15, 2017
Temps Temperatura Punt de rosada Pression baro Vent Wind Speed RĂ fegues de vent Humitat Rainfall Rate (Hourly)
00:00 18.4 °C 11.4 °C 1015.8 hPa ENE 5.6 km/h 5.6 km/h 64 % 0.0 mm
00:05 18.3 °C 11.6 °C 1014.8 hPa SE 7.4 km/h 7.4 km/h 65 % 0.0 mm
00:15 13.7 °C 11.2 °C 1014.8 hPa NE 1.6 km/h 4.8 km/h 85 % 0.0 mm
00:25 13.6 °C 10.9 °C 1014.8 hPa NNE 1.6 km/h 3.2 km/h 84 % 0.0 mm
00:35 13.6 °C 11.1 °C 1014.8 hPa North 1.6 km/h 1.6 km/h 85 % 0.0 mm
00:45 13.7 °C 11.2 °C 1013.8 hPa Calm   3.2 km/h 85 % 0.0 mm
00:55 13.6 °C 11.1 °C 1013.8 hPa Calm   3.2 km/h 85 % 0.0 mm
01:05 13.6 °C 11.1 °C 1013.8 hPa WSW 1.6 km/h 1.6 km/h 85 % 0.0 mm
01:15 13.6 °C 11.1 °C 1013.8 hPa Calm   1.6 km/h 85 % 0.0 mm
01:25 13.4 °C 10.9 °C 1014.8 hPa NNE 1.6 km/h 4.8 km/h 85 % 0.0 mm
01:35 13.4 °C 10.9 °C 1014.8 hPa Calm   3.2 km/h 85 % 0.0 mm
01:45 13.4 °C 10.9 °C 1014.8 hPa Calm   3.2 km/h 85 % 0.0 mm
01:55 13.3 °C 10.7 °C 1014.8 hPa NNE 1.6 km/h 4.8 km/h 84 % 0.0 mm
02:05 13.2 °C 10.6 °C 1014.8 hPa NNE 3.2 km/h 4.8 km/h 84 % 0.0 mm
02:15 13.2 °C 10.6 °C 1014.8 hPa NNE 1.6 km/h 3.2 km/h 84 % 0.0 mm
02:25 13.3 °C 10.7 °C 1014.8 hPa Calm   3.2 km/h 84 % 0.0 mm
02:35 13.4 °C 10.8 °C 1014.8 hPa WNW 1.6 km/h 3.2 km/h 84 % 0.0 mm
02:45 13.3 °C 10.7 °C 1014.8 hPa WNW 3.2 km/h 3.2 km/h 84 % 0.0 mm
02:55 13.3 °C 10.7 °C 1014.8 hPa NW 1.6 km/h 3.2 km/h 84 % 0.0 mm
03:05 13.3 °C 10.7 °C 1014.8 hPa North 1.6 km/h 3.2 km/h 84 % 0.0 mm
03:15 13.3 °C 10.7 °C 1014.8 hPa NNE 1.6 km/h 3.2 km/h 84 % 0.0 mm
03:25 13.2 °C 10.6 °C 1014.8 hPa NE 1.6 km/h 1.6 km/h 84 % 0.0 mm
03:35 13.2 °C 10.6 °C 1014.8 hPa NNW 1.6 km/h 3.2 km/h 84 % 0.0 mm
03:45 13.0 °C 10.0 °C 1014.8 hPa West 1.6 km/h 3.2 km/h 82 % 0.0 mm
03:55 13.1 °C 10.1 °C 1014.8 hPa SSW 1.6 km/h 1.6 km/h 82 % 0.0 mm
04:05 13.0 °C 9.8 °C 1014.8 hPa SW 3.2 km/h 3.2 km/h 81 % 0.0 mm
04:15 12.9 °C 9.7 °C 1014.8 hPa WSW 1.6 km/h 3.2 km/h 81 % 0.0 mm
04:25 13.1 °C 9.9 °C 1014.8 hPa Calm   1.6 km/h 81 % 0.0 mm
04:35 13.1 °C 9.7 °C 1014.8 hPa East 1.6 km/h   80 % 0.0 mm
04:45 13.2 °C 10.0 °C 1014.8 hPa Calm   3.2 km/h 81 % 0.0 mm
04:55 13.1 °C 9.9 °C 1014.8 hPa NNE 1.6 km/h 3.2 km/h 81 % 0.0 mm
05:05 13.2 °C 10.0 °C 1014.8 hPa Calm   4.8 km/h 81 % 0.0 mm
05:15 13.1 °C 10.1 °C 1014.8 hPa Calm   3.2 km/h 82 % 0.0 mm
05:25 13.1 °C 10.3 °C 1014.8 hPa Calm     83 % 0.0 mm
10:33 13.0 °C 10.2 °C 1014.8 hPa SW 3.7 km/h   83 % 0.0 mm
10:34 13.0 °C 10.2 °C 1014.8 hPa SW 3.7 km/h   83 % 0.0 mm
10:35 13.0 °C 10.2 °C 1014.8 hPa NNW 5.6 km/h   83 % 0.0 mm
10:40 12.9 °C 10.1 °C 1014.8 hPa NW 1.4 km/h   83 % 0.0 mm
10:45 12.8 °C 10.0 °C 1014.8 hPa West 2.3 km/h   83 % 0.0 mm
10:50 12.9 °C 10.1 °C 1014.8 hPa SSE 3.7 km/h 3.7 km/h 83 % 0.0 mm
10:55 13.0 °C 10.3 °C 1014.8 hPa SSE 1.9 km/h   84 % 0.0 mm
11:00 12.8 °C 10.2 °C 1014.8 hPa SE 3.5 km/h 3.5 km/h 84 % 0.0 mm
11:05 12.6 °C 9.8 °C 1014.8 hPa WNW 1.9 km/h   83 % 0.0 mm
11:10 12.7 °C 10.1 °C 1014.8 hPa East 3.7 km/h 3.7 km/h 84 % 0.0 mm
11:15 12.8 °C 10.2 °C 1014.8 hPa NNE 1.9 km/h   84 % 0.0 mm
11:20 12.7 °C 10.1 °C 1014.8 hPa Calm     84 % 0.0 mm
11:25 12.8 °C 10.3 °C 1014.8 hPa Calm     85 % 0.0 mm
11:30 12.8 °C 10.3 °C 1014.8 hPa SSE 1.9 km/h   85 % 0.0 mm
11:35 12.8 °C 10.3 °C 1014.8 hPa ESE 2.3 km/h 2.3 km/h 85 % 0.0 mm
11:40 12.8 °C 10.3 °C 1014.8 hPa SW 1.4 km/h   85 % 0.0 mm
11:45 13.0 °C 10.6 °C 1014.8 hPa South 1.9 km/h   85 % 0.0 mm
11:50 13.0 °C 10.6 °C 1014.8 hPa ESE 1.9 km/h   85 % 0.0 mm
11:55 12.9 °C 10.4 °C 1014.8 hPa WSW 1.9 km/h 2.3 km/h 85 % 0.0 mm
12:00 12.9 °C 10.4 °C 1014.8 hPa SW 1.9 km/h   85 % 0.0 mm
12:05 12.9 °C 10.4 °C 1014.8 hPa South 1.9 km/h   85 % 0.0 mm
12:10 12.9 °C 10.4 °C 1014.8 hPa ESE 1.9 km/h 1.9 km/h 85 % 0.0 mm
12:15 13.0 °C 10.6 °C 1014.8 hPa SW 2.6 km/h   85 % 1.0 mm
12:20 13.0 °C 10.7 °C 1014.8 hPa SW 2.3 km/h 2.3 km/h 86 % 1.0 mm
12:25 12.9 °C 10.4 °C 1014.8 hPa NNW 1.9 km/h   85 % 1.0 mm
12:30 13.0 °C 10.7 °C 1014.8 hPa WNW 1.9 km/h   86 % 1.0 mm
12:35 13.1 °C 10.8 °C 1013.8 hPa Calm     86 % 1.0 mm
12:40 13.2 °C 10.9 °C 1013.8 hPa West 3.7 km/h 3.7 km/h 86 % 1.0 mm
12:41 13.2 °C 10.9 °C 1013.8 hPa WNW 3.7 km/h 3.7 km/h 86 % 1.0 mm
12:46 13.3 °C 11.0 °C 1013.8 hPa WSW 4.2 km/h   86 % 1.0 mm
12:51 13.2 °C 10.7 °C 1014.8 hPa SW 5.6 km/h 5.6 km/h 85 % 1.0 mm
12:56 13.3 °C 11.0 °C 1014.8 hPa Calm     86 % 1.0 mm
13:01 13.1 °C 10.8 °C 1014.8 hPa NNE 1.9 km/h 1.9 km/h 86 % 1.0 mm
13:06 13.2 °C 10.9 °C 1013.8 hPa WSW 2.3 km/h   86 % 1.0 mm
13:11 13.4 °C 11.3 °C 1013.8 hPa West 1.9 km/h   87 % 1.0 mm
13:16 13.3 °C 11.2 °C 1013.8 hPa NNW 1.9 km/h 1.9 km/h 87 % 0.0 mm
13:21 13.4 °C 11.3 °C 1013.8 hPa SW 1.9 km/h 2.3 km/h 87 % 0.0 mm
13:26 13.6 °C 11.5 °C 1013.8 hPa WSW 2.3 km/h 2.3 km/h 87 % 0.0 mm
13:31 13.6 °C 11.5 °C 1013.8 hPa SW 1.9 km/h   87 % 0.0 mm
13:34 13.5 °C 11.4 °C 1013.8 hPa WNW 1.9 km/h   87 % 0.0 mm
13:39 13.4 °C 11.3 °C 1013.8 hPa South 1.9 km/h   87 % 1.0 mm
13:44 13.3 °C 11.2 °C 1013.8 hPa ENE 1.9 km/h   87 % 1.0 mm
13:49 13.4 °C 11.3 °C 1013.8 hPa WSW 3.7 km/h 3.7 km/h 87 % 1.0 mm
13:54 13.4 °C 11.3 °C 1013.8 hPa SW 3.7 km/h   87 % 1.0 mm
13:59 13.5 °C 11.4 °C 1013.8 hPa Calm     87 % 1.0 mm
14:04 13.5 °C 11.6 °C 1013.8 hPa WNW 1.9 km/h   88 % 1.0 mm
14:09 13.4 °C 11.3 °C 1013.8 hPa SW 3.7 km/h 3.7 km/h 87 % 1.0 mm
14:14 13.5 °C 11.4 °C 1013.8 hPa SW 3.7 km/h 3.7 km/h 87 % 1.0 mm
14:19 13.5 °C 11.4 °C 1013.8 hPa WNW 5.6 km/h 5.6 km/h 87 % 1.0 mm
14:24 13.4 °C 11.3 °C 1013.8 hPa SW 1.9 km/h   87 % 1.0 mm
14:29 13.4 °C 11.3 °C 1013.8 hPa SW 3.7 km/h 3.7 km/h 87 % 1.0 mm
14:34 13.3 °C 11.2 °C 1013.8 hPa West 1.9 km/h   87 % 1.0 mm
14:39 13.3 °C 11.2 °C 1013.8 hPa NNW 3.9 km/h 3.9 km/h 87 % 1.0 mm
14:44 13.3 °C 11.2 °C 1013.8 hPa SW 1.9 km/h   87 % 1.0 mm
14:49 13.3 °C 11.3 °C 1013.8 hPa West 1.9 km/h 1.9 km/h 88 % 1.0 mm
14:54 13.2 °C 11.1 °C 1013.8 hPa WSW 2.3 km/h 2.3 km/h 87 % 1.0 mm
15:04 13.3 °C 11.3 °C 1013.8 hPa Calm     88 % 1.0 mm
15:09 13.4 °C 11.4 °C 1013.8 hPa WNW 1.9 km/h   88 % 1.0 mm
15:14 13.5 °C 11.7 °C 1013.8 hPa Calm     89 % 2.0 mm
15:19 13.5 °C 11.6 °C 1013.8 hPa SW 2.3 km/h   88 % 2.0 mm
15:24 13.6 °C 11.8 °C 1013.8 hPa Calm     89 % 2.0 mm
15:29 13.7 °C 11.9 °C 1013.8 hPa West 1.9 km/h   89 % 2.0 mm
15:34 13.6 °C 11.8 °C 1013.8 hPa SW 3.7 km/h   89 % 2.0 mm
15:39 13.7 °C 11.9 °C 1013.8 hPa Calm     89 % 1.0 mm
15:49 13.5 °C 11.7 °C 1013.8 hPa Calm     89 % 1.0 mm
15:54 13.6 °C 12.0 °C 1013.8 hPa Calm     90 % 1.0 mm
15:59 13.6 °C 12.0 °C 1013.8 hPa Calm     90 % 1.0 mm
16:04 13.8 °C 12.2 °C 1012.8 hPa SW 1.9 km/h   90 % 1.0 mm
16:09 13.7 °C 12.1 °C 1012.8 hPa SW 2.3 km/h 3.2 km/h 90 % 1.0 mm
16:14 13.8 °C 12.2 °C 1012.8 hPa SW 1.9 km/h   90 % 1.3 mm
16:19 13.5 °C 11.7 °C 1013.8 hPa East 3.7 km/h 3.7 km/h 89 % 1.3 mm
16:24 13.6 °C 11.8 °C 1013.8 hPa Calm     89 % 1.3 mm
16:29 13.5 °C 11.7 °C 1013.8 hPa NE 5.0 km/h 5.0 km/h 89 % 1.3 mm
16:34 13.6 °C 11.8 °C 1013.8 hPa ENE 4.7 km/h 4.7 km/h 89 % 1.3 mm
16:39 13.5 °C 11.7 °C 1013.8 hPa ENE 5.3 km/h 5.3 km/h 89 % 1.3 mm
16:44 13.5 °C 11.7 °C 1013.8 hPa ENE 3.7 km/h 3.7 km/h 89 % 1.3 mm
16:49 13.4 °C 11.6 °C 1011.7 hPa ENE 2.3 km/h 2.6 km/h 89 % 1.3 mm
16:50 13.4 °C 11.6 °C 1011.7 hPa NNE 3.9 km/h 3.9 km/h 89 % 1.3 mm
16:55 13.4 °C 11.6 °C 1011.7 hPa East 3.7 km/h 3.7 km/h 89 % 1.3 mm
17:00 13.3 °C 11.5 °C 1011.7 hPa East 3.7 km/h 3.7 km/h 89 % 1.3 mm
17:05 13.4 °C 11.6 °C 1012.8 hPa SW 4.7 km/h 4.7 km/h 89 % 1.3 mm
17:10 13.6 °C 11.8 °C 1012.8 hPa South 3.7 km/h   89 % 1.3 mm
17:15 13.7 °C 12.1 °C 1012.8 hPa SSE 3.9 km/h   90 % 0.0 mm
17:20 13.7 °C 12.1 °C 1012.8 hPa SW 4.2 km/h 4.2 km/h 90 % 0.0 mm
17:25 13.7 °C 11.9 °C 1012.8 hPa SSW 3.7 km/h   89 % 1.0 mm
17:30 13.7 °C 12.1 °C 1012.8 hPa SW 3.9 km/h 3.9 km/h 90 % 1.0 mm
17:35 13.6 °C 12.0 °C 1013.8 hPa West 1.9 km/h 1.9 km/h 90 % 1.0 mm
17:40 13.5 °C 11.9 °C 1013.8 hPa Calm     90 % 1.0 mm
17:45 13.5 °C 11.9 °C 1013.8 hPa SW 3.7 km/h 3.7 km/h 90 % 1.0 mm
17:50 13.4 °C 11.8 °C 1012.8 hPa WSW 3.7 km/h 3.7 km/h 90 % 1.0 mm
17:55 13.5 °C 11.9 °C 1012.8 hPa Calm     90 % 1.0 mm
18:00 13.6 °C 12.0 °C 1012.8 hPa Calm     90 % 1.0 mm
18:05 13.5 °C 11.9 °C 1012.8 hPa SSW 3.7 km/h 3.7 km/h 90 % 1.0 mm
18:10 13.4 °C 11.8 °C 1012.8 hPa SW 3.7 km/h   90 % 1.0 mm
18:15 13.4 °C 11.8 °C 1012.8 hPa Calm     90 % 1.0 mm
18:20 13.5 °C 12.1 °C 1012.8 hPa SW 3.7 km/h   91 % 1.0 mm
18:25 13.4 °C 11.9 °C 1012.8 hPa Calm     91 % 0.0 mm
18:30 13.3 °C 11.7 °C 1012.8 hPa WSW 3.7 km/h 3.7 km/h 90 % 0.0 mm
18:35 13.3 °C 11.9 °C 1012.8 hPa SE 1.9 km/h   91 % 0.0 mm
18:36 13.3 °C 11.9 °C 1012.8 hPa SE 1.9 km/h   91 % 0.0 mm
18:41 13.3 °C 11.9 °C 1012.8 hPa Calm     91 % 1.0 mm
18:46 13.2 °C 11.6 °C 1012.8 hPa WSW 3.7 km/h 3.7 km/h 90 % 1.0 mm
18:51 13.2 °C 11.6 °C 1013.8 hPa WSW 5.6 km/h 5.6 km/h 90 % 1.0 mm
18:56 13.3 °C 11.7 °C 1013.8 hPa West 1.9 km/h   90 % 1.0 mm
19:01 13.2 °C 11.8 °C 1013.8 hPa SW 3.7 km/h   91 % 1.0 mm
19:06 13.1 °C 11.5 °C 1012.8 hPa West 1.9 km/h   90 % 1.0 mm
19:11 13.1 °C 11.7 °C 1012.8 hPa Calm     91 % 1.0 mm
19:16 13.1 °C 11.7 °C 1012.8 hPa Calm     91 % 1.0 mm
19:21 13.1 °C 11.7 °C 1012.8 hPa Calm     91 % 1.0 mm
19:26 13.1 °C 11.7 °C 1012.8 hPa West 1.9 km/h   91 % 1.0 mm
19:31 13.1 °C 11.7 °C 1012.8 hPa WSW 1.9 km/h   91 % 1.0 mm
19:36 13.1 °C 11.7 °C 1012.8 hPa Calm     91 % 1.0 mm
19:41 13.0 °C 11.6 °C 1012.8 hPa Calm     91 % 0.0 mm
19:46 13.0 °C 11.4 °C 1012.8 hPa NE 3.7 km/h 3.7 km/h 90 % 0.0 mm
19:51 13.0 °C 11.6 °C 1011.7 hPa NNE 1.9 km/h   91 % 0.0 mm
19:56 13.1 °C 11.7 °C 1011.7 hPa NNE 3.7 km/h 3.7 km/h 91 % 0.0 mm
20:01 13.0 °C 11.6 °C 1011.7 hPa NNE 1.9 km/h   91 % 0.0 mm
20:06 12.9 °C 11.3 °C 1012.8 hPa SSE 5.6 km/h 5.6 km/h 90 % 0.0 mm
20:11 12.8 °C 11.2 °C 1012.8 hPa West 3.7 km/h 3.7 km/h 90 % 0.0 mm
20:16 12.9 °C 11.3 °C 1012.8 hPa Calm     90 % 0.0 mm
20:21 12.9 °C 11.3 °C 1013.8 hPa SW 5.3 km/h 5.3 km/h 90 % 0.0 mm
20:26 13.0 °C 11.4 °C 1013.8 hPa WSW 3.7 km/h 3.7 km/h 90 % 0.0 mm
20:31 12.9 °C 11.3 °C 1013.8 hPa SW 3.7 km/h   90 % 0.0 mm
20:36 12.9 °C 11.3 °C 1013.8 hPa SSW 5.6 km/h 5.6 km/h 90 % 0.0 mm
20:41 12.9 °C 11.4 °C 1013.8 hPa WSW 3.7 km/h 3.7 km/h 91 % 0.0 mm
20:46 12.8 °C 11.4 °C 1013.8 hPa West 3.7 km/h 3.7 km/h 91 % 0.0 mm
20:51 12.7 °C 11.1 °C 1013.8 hPa West 3.7 km/h 3.7 km/h 90 % 0.0 mm
20:56 12.7 °C 11.1 °C 1013.8 hPa Calm     90 % 0.0 mm
21:01 12.5 °C 10.9 °C 1013.8 hPa West 5.0 km/h 5.0 km/h 90 % 0.0 mm
21:06 12.4 °C 10.8 °C 1013.8 hPa WNW 3.7 km/h 3.7 km/h 90 % 0.0 mm
21:11 12.4 °C 10.8 °C 1013.8 hPa SW 3.7 km/h 3.7 km/h 90 % 0.0 mm
21:16 12.4 °C 10.8 °C 1013.8 hPa WSW 3.9 km/h 3.9 km/h 90 % 0.0 mm
21:21 12.4 °C 10.8 °C 1013.8 hPa WSW 3.7 km/h 3.7 km/h 90 % 0.0 mm
21:26 12.3 °C 10.7 °C 1013.8 hPa SW 1.9 km/h 1.9 km/h 90 % 0.0 mm
21:31 12.3 °C 10.7 °C 1013.8 hPa Calm     90 % 0.0 mm
21:36 12.3 °C 10.7 °C 1013.8 hPa South 3.7 km/h 3.7 km/h 90 % 0.0 mm
21:41 12.2 °C 10.6 °C 1013.8 hPa West 1.9 km/h 1.9 km/h 90 % 0.0 mm
21:46 12.2 °C 10.6 °C 1013.8 hPa SSW 3.7 km/h   90 % 0.0 mm
21:51 12.2 °C 10.6 °C 1014.8 hPa SW 3.9 km/h 3.9 km/h 90 % 0.0 mm
21:56 12.1 °C 10.5 °C 1014.8 hPa SSW 3.7 km/h 3.7 km/h 90 % 0.0 mm
22:01 12.0 °C 10.4 °C 1014.8 hPa SW 1.9 km/h   90 % 0.0 mm
22:06 12.0 °C 10.4 °C 1013.8 hPa Calm     90 % 0.0 mm
22:11 12.0 °C 10.4 °C 1013.8 hPa SSW 1.9 km/h 2.3 km/h 90 % 0.0 mm
22:15 10.0 °C 8.4 °C 1012.8 hPa Calm     90 % 0.0 mm
22:16 11.9 °C 10.3 °C 1013.8 hPa SSW 3.7 km/h 3.7 km/h 90 % 0.0 mm
22:21 11.8 °C 10.2 °C 1013.8 hPa Calm     90 % 0.0 mm
22:25 10.1 °C 8.6 °C 1011.7 hPa SW 1.6 km/h 3.2 km/h 90 % 0.0 mm
22:26 11.8 °C 10.2 °C 1013.8 hPa SSW 1.9 km/h   90 % 0.0 mm
22:31 11.7 °C 10.1 °C 1013.8 hPa Calm     90 % 0.0 mm
22:35 10.0 °C 8.3 °C 1011.7 hPa SW 1.6 km/h 3.2 km/h 89 % 0.0 mm
22:36 11.6 °C 10.0 °C 1013.8 hPa SSW 3.7 km/h 3.7 km/h 90 % 0.0 mm
22:41 11.6 °C 10.0 °C 1013.8 hPa SSW 2.3 km/h 2.6 km/h 90 % 0.0 mm
22:45 10.0 °C 8.3 °C 1011.7 hPa Calm     89 % 0.0 mm
22:46 11.5 °C 9.9 °C 1013.8 hPa SW 3.7 km/h 3.7 km/h 90 % 0.0 mm
22:51 11.5 °C 9.7 °C 1013.8 hPa SW 3.7 km/h 3.7 km/h 89 % 0.0 mm
22:55 9.9 °C 8.2 °C 1011.7 hPa SW 1.6 km/h 3.2 km/h 89 % 0.0 mm
22:56 11.5 °C 9.9 °C 1013.8 hPa SW 3.7 km/h 3.7 km/h 90 % 0.0 mm
23:01 11.5 °C 9.9 °C 1013.8 hPa SW 1.9 km/h   90 % 0.0 mm
23:05 9.7 °C 8.0 °C 1011.7 hPa Calm   3.2 km/h 89 % 0.0 mm
23:06 11.5 °C 9.9 °C 1012.8 hPa SW 3.7 km/h 3.7 km/h 90 % 0.0 mm
23:11 11.5 °C 9.9 °C 1012.8 hPa SW 3.7 km/h 3.7 km/h 90 % 0.0 mm
23:15 9.9 °C 8.2 °C 1011.7 hPa SSW 1.6 km/h 4.8 km/h 89 % 0.0 mm
23:16 11.5 °C 9.9 °C 1012.8 hPa SW 1.9 km/h   90 % 0.0 mm
23:21 11.5 °C 9.9 °C 1013.8 hPa Calm     90 % 0.0 mm
23:25 10.0 °C 8.3 °C 1011.7 hPa SW 3.2 km/h 3.2 km/h 89 % 0.0 mm
23:26 11.4 °C 9.8 °C 1013.8 hPa Calm     90 % 0.0 mm
23:31 11.4 °C 9.8 °C 1013.8 hPa Calm     90 % 0.0 mm
23:35 10.0 °C 8.3 °C 1011.7 hPa Calm   1.6 km/h 89 % 0.0 mm
23:36 11.3 °C 9.7 °C 1013.8 hPa SSW 3.7 km/h 3.7 km/h 90 % 0.0 mm
23:41 11.2 °C 9.4 °C 1013.8 hPa SSW 3.7 km/h 3.7 km/h 89 % 0.0 mm
23:45 9.6 °C 7.9 °C 1011.7 hPa WSW 3.2 km/h 4.8 km/h 89 % 0.0 mm
23:46 11.2 °C 9.4 °C 1013.8 hPa SSW 3.7 km/h 3.7 km/h 89 % 0.0 mm
23:51 11.1 °C 9.3 °C 1013.8 hPa Calm     89 % 0.0 mm
23:55 9.6 °C 7.9 °C 1011.7 hPa SW 4.8 km/h 4.8 km/h 89 % 0.0 mm
23:56 11.1 °C 9.3 °C 1013.8 hPa SW 1.9 km/h 1.9 km/h 89 % 0.0 mm
Meteo Sesrovires
Elogis d' Weather Underground - 3.5 mb

Guio original per  Jim McMurry - jmcmurry@mwt.net Adaptat per a la plantilla per  Wim van der Kuil - Leuven-Template.eu

Trobareu la nostra informacio del temps tambe a:

Weather Underground

AWEKAS